createdAt,value
2022-11-21T00:01:24.807Z,24.58
2022-11-21T00:03:52.196Z,24.08
2022-11-21T00:06:20.196Z,22.77
2022-11-21T00:08:47.805Z,24.15
2022-11-21T00:11:15.241Z,24.00
2022-11-21T00:13:42.754Z,21.92
2022-11-21T00:16:12.940Z,22.27
2022-11-21T00:18:40.432Z,23.17
2022-11-21T00:21:10.439Z,22.05
2022-11-21T00:26:06.532Z,22.42
2022-11-21T00:28:34.718Z,23.20
2022-11-21T00:31:02.122Z,21.90
2022-11-21T00:33:29.300Z,23.20
2022-11-21T00:35:56.448Z,23.48
2022-11-21T00:38:24.644Z,23.02
2022-11-21T00:40:51.883Z,23.17
2022-11-21T00:43:19.000Z,23.42
2022-11-21T00:45:46.150Z,22.80
2022-11-21T00:48:13.240Z,22.67
2022-11-21T00:50:40.360Z,23.38
2022-11-21T00:53:07.434Z,22.15
2022-11-21T00:55:34.599Z,21.88
2022-11-21T00:58:01.720Z,21.45
2022-11-21T01:00:28.955Z,23.45
2022-11-21T01:02:56.527Z,21.98
2022-11-21T01:05:25.015Z,23.65
2022-11-21T01:07:52.089Z,21.65
2022-11-21T01:10:19.359Z,22.77
2022-11-21T01:12:46.478Z,21.88
2022-11-21T01:15:13.758Z,21.52
2022-11-21T01:17:41.004Z,21.73
2022-11-21T01:20:08.773Z,22.17
2022-11-21T01:22:36.081Z,21.02
2022-11-21T01:25:03.724Z,21.83
2022-11-21T01:27:30.924Z,21.98
2022-11-21T01:29:58.083Z,21.75
2022-11-21T01:32:25.233Z,22.23
2022-11-21T01:34:52.413Z,25.00
2022-11-21T01:37:19.519Z,25.15
2022-11-21T01:39:46.640Z,24.40
2022-11-21T01:42:14.254Z,26.85
2022-11-21T01:44:52.233Z,24.70
2022-11-21T01:47:19.923Z,25.27
2022-11-21T01:49:47.883Z,23.95
2022-11-21T01:52:26.309Z,24.30
2022-11-21T01:54:58.331Z,24.48
2022-11-21T01:57:25.399Z,22.98
2022-11-21T02:00:23.631Z,24.20
2022-11-21T02:02:55.542Z,24.40
2022-11-21T02:05:26.698Z,26.35
2022-11-21T02:07:58.315Z,24.88
2022-11-21T02:10:25.864Z,26.90
2022-11-21T02:12:55.632Z,27.60
2022-11-21T02:15:25.648Z,26.77
2022-11-21T02:20:23.403Z,24.65
2022-11-21T02:23:12.438Z,24.90
2022-11-21T02:25:42.494Z,26.25
2022-11-21T02:30:41.409Z,25.00
2022-11-21T02:33:09.838Z,25.77
2022-11-21T02:35:36.967Z,24.92
2022-11-21T02:38:16.102Z,25.02
2022-11-21T02:40:51.877Z,24.30
2022-11-21T02:43:48.153Z,24.88
2022-11-21T02:46:15.273Z,23.67
2022-11-21T02:48:42.522Z,24.30
2022-11-21T02:51:09.639Z,25.48
2022-11-21T02:53:36.874Z,24.20
2022-11-21T02:56:04.082Z,24.55
2022-11-21T02:58:31.575Z,24.95
2022-11-21T03:00:58.799Z,25.13
2022-11-21T03:03:26.052Z,26.00
2022-11-21T03:05:53.324Z,24.60
2022-11-21T03:08:20.441Z,26.65
2022-11-21T03:10:47.646Z,26.35
2022-11-21T03:13:14.848Z,26.67
2022-11-21T03:15:42.046Z,27.67
2022-11-21T03:18:09.121Z,27.38
2022-11-21T03:20:36.359Z,26.50
2022-11-21T03:23:03.882Z,25.40
2022-11-21T03:25:31.603Z,25.58
2022-11-21T03:27:58.890Z,26.80
2022-11-21T03:30:27.901Z,26.55
2022-11-21T03:32:58.703Z,26.15
2022-11-21T03:35:26.010Z,25.25
2022-11-21T03:37:53.551Z,27.23
2022-11-21T03:40:20.752Z,28.17
2022-11-21T03:42:47.862Z,28.23
2022-11-21T03:45:15.034Z,26.90
2022-11-21T03:47:42.451Z,26.00
2022-11-21T03:50:10.883Z,27.15
2022-11-21T03:52:37.919Z,27.80
2022-11-21T03:55:05.480Z,28.30
2022-11-21T03:57:32.554Z,28.38
2022-11-21T03:59:59.733Z,29.88
2022-11-21T04:02:27.049Z,30.88
2022-11-21T04:04:54.194Z,31.65
2022-11-21T04:07:21.411Z,35.13
2022-11-21T04:09:48.592Z,31.85
2022-11-21T04:12:15.722Z,32.72
2022-11-21T04:14:42.969Z,31.58
2022-11-21T04:17:10.158Z,31.27
2022-11-21T04:19:37.240Z,31.75
2022-11-21T04:22:04.348Z,31.40
2022-11-21T04:24:31.534Z,30.95
2022-11-21T04:26:58.640Z,35.13
2022-11-21T04:29:25.726Z,35.38
2022-11-21T04:31:52.836Z,37.00
2022-11-21T04:34:19.921Z,31.67
2022-11-21T04:36:47.066Z,31.00
2022-11-21T04:39:14.281Z,29.88
2022-11-21T04:41:41.438Z,28.20
2022-11-21T04:44:08.638Z,27.92
2022-11-21T04:46:35.845Z,29.05
2022-11-21T04:49:03.058Z,27.48
2022-11-21T04:51:30.112Z,27.67
2022-11-21T04:53:57.200Z,25.63
2022-11-21T04:56:24.254Z,27.15
2022-11-21T04:58:53.245Z,26.15
2022-11-21T05:01:20.407Z,24.88
2022-11-21T05:03:47.609Z,25.15
2022-11-21T05:06:15.890Z,25.98
2022-11-21T05:08:45.612Z,26.23
2022-11-21T05:11:33.598Z,26.90
2022-11-21T05:14:00.799Z,28.70
2022-11-21T05:16:28.121Z,27.35
2022-11-21T05:18:55.230Z,27.45
2022-11-21T05:21:22.488Z,26.17
2022-11-21T05:23:49.688Z,28.73
2022-11-21T05:26:16.895Z,29.92
2022-11-21T05:28:44.129Z,27.38
2022-11-21T05:31:11.271Z,29.70
2022-11-21T05:33:38.438Z,27.80
2022-11-21T05:36:05.751Z,30.08
2022-11-21T05:38:32.832Z,28.55
2022-11-21T05:40:59.943Z,31.42
2022-11-21T05:43:45.777Z,30.42
2022-11-21T05:46:21.791Z,29.52
2022-11-21T05:48:50.449Z,31.85
2022-11-21T05:51:18.519Z,29.08
2022-11-21T05:53:46.238Z,29.90
2022-11-21T05:56:18.519Z,30.08
2022-11-21T05:58:46.340Z,27.35
2022-11-21T06:01:15.385Z,27.00
2022-11-21T06:03:43.421Z,27.83
2022-11-21T06:06:13.050Z,27.75
2022-11-21T06:08:45.650Z,24.98
2022-11-21T06:11:15.638Z,25.38
2022-11-21T06:16:15.641Z,25.05
2022-11-21T06:18:45.173Z,26.35
2022-11-21T06:21:18.073Z,25.88
2022-11-21T06:23:45.869Z,23.85
2022-11-21T06:26:15.393Z,25.70
2022-11-21T06:28:43.782Z,24.45
2022-11-21T06:31:16.448Z,25.88
2022-11-21T06:33:44.659Z,25.08
2022-11-21T06:36:14.467Z,25.65
2022-11-21T06:38:42.001Z,24.98
2022-11-21T06:41:23.819Z,25.13
2022-11-21T06:43:50.928Z,25.13
2022-11-21T06:46:18.280Z,26.13
2022-11-21T06:48:45.684Z,25.67
2022-11-21T06:51:22.353Z,25.55
2022-11-21T06:53:57.424Z,24.38
2022-11-21T06:56:29.245Z,24.20
2022-11-21T06:58:57.159Z,24.85
2022-11-21T07:01:24.508Z,25.42
2022-11-21T07:03:52.053Z,25.98
2022-11-21T07:06:19.280Z,25.75
2022-11-21T07:08:46.368Z,26.33
2022-11-21T07:11:30.315Z,25.00
2022-11-21T07:13:57.586Z,25.85
2022-11-21T07:16:26.629Z,26.20
2022-11-21T07:18:53.810Z,26.55
2022-11-21T07:21:20.922Z,26.73
2022-11-21T07:23:48.892Z,27.02
2022-11-21T07:26:16.080Z,28.98
2022-11-21T07:28:43.542Z,26.75
2022-11-21T07:31:13.725Z,24.65
2022-11-21T07:33:43.807Z,26.25
2022-11-21T07:36:12.313Z,26.10
2022-11-21T07:38:41.305Z,26.27
2022-11-21T07:41:09.449Z,25.52
2022-11-21T07:43:36.702Z,26.02
2022-11-21T07:46:03.895Z,26.40
2022-11-21T07:48:31.224Z,26.35
2022-11-21T07:50:58.494Z,27.85
2022-11-21T07:53:25.735Z,27.27
2022-11-21T07:55:53.340Z,28.15
2022-11-21T07:58:20.435Z,29.45
2022-11-21T08:00:47.747Z,27.73
2022-11-21T08:03:15.029Z,26.88
2022-11-21T08:05:44.084Z,27.52
2022-11-21T08:08:12.543Z,28.02
2022-11-21T08:10:42.540Z,29.95
2022-11-21T08:13:09.829Z,29.50
2022-11-21T08:15:38.311Z,30.35
2022-11-21T08:18:16.453Z,29.02
2022-11-21T08:20:43.651Z,28.52
2022-11-21T08:23:11.145Z,29.55
2022-11-21T08:25:42.231Z,27.98
2022-11-21T08:28:11.569Z,30.95
2022-11-21T08:30:40.126Z,32.45
2022-11-21T08:33:07.897Z,29.33
2022-11-21T08:35:38.302Z,29.85
2022-11-21T08:38:06.031Z,28.38
2022-11-21T08:40:34.489Z,28.92
2022-11-21T08:43:03.213Z,29.40
2022-11-21T08:45:31.494Z,30.88
2022-11-21T08:47:58.663Z,28.20
2022-11-21T08:50:26.651Z,30.00
2022-11-21T08:52:54.252Z,28.42
2022-11-21T08:55:23.283Z,29.33
2022-11-21T08:57:50.403Z,29.75
2022-11-21T09:00:17.641Z,30.67
2022-11-21T09:02:45.092Z,32.30
2022-11-21T09:05:12.231Z,28.95
2022-11-21T09:07:39.408Z,30.90
2022-11-21T09:10:07.276Z,33.15
2022-11-21T09:12:34.370Z,32.70
2022-11-21T09:15:20.246Z,30.50
2022-11-21T09:18:05.411Z,32.33
2022-11-21T09:20:36.843Z,29.77
2022-11-21T09:23:11.568Z,30.90
2022-11-21T09:25:39.251Z,33.53
2022-11-21T09:28:09.097Z,31.27
2022-11-21T09:30:37.214Z,33.95
2022-11-21T09:33:10.039Z,31.27
2022-11-21T09:35:37.365Z,31.27
2022-11-21T09:38:05.018Z,33.97
2022-11-21T09:40:33.570Z,32.25
2022-11-21T09:43:32.280Z,31.73
2022-11-21T09:46:11.006Z,33.97
2022-11-21T09:48:55.342Z,32.08
2022-11-21T09:51:23.823Z,34.28
2022-11-21T09:53:57.965Z,30.30
2022-11-21T09:56:27.769Z,33.67
2022-11-21T09:59:28.000Z,33.10
2022-11-21T10:01:55.452Z,35.17
2022-11-21T10:04:22.679Z,33.78
2022-11-21T10:07:07.735Z,33.30
2022-11-21T10:10:12.647Z,32.83
2022-11-21T10:13:24.718Z,34.40
2022-11-21T10:16:13.413Z,36.53
2022-11-21T10:19:10.521Z,35.22
2022-11-21T10:21:46.384Z,37.55
2022-11-21T10:24:19.361Z,37.42
2022-11-21T10:27:00.440Z,37.95
2022-11-21T10:29:39.253Z,39.03
2022-11-21T10:32:27.690Z,37.28
2022-11-21T10:35:18.050Z,38.42
2022-11-21T10:38:01.249Z,39.50
2022-11-21T10:40:45.891Z,40.28
2022-11-21T10:43:37.243Z,39.25
2022-11-21T10:46:04.452Z,39.05
2022-11-21T10:48:31.721Z,39.72
2022-11-21T10:51:14.118Z,41.60
2022-11-21T10:54:04.655Z,40.50
2022-11-21T10:56:36.610Z,40.20
2022-11-21T10:59:22.611Z,41.25
2022-11-21T11:01:59.649Z,39.97
2022-11-21T11:04:43.995Z,40.50
2022-11-21T11:07:28.874Z,43.10
2022-11-21T11:10:26.754Z,38.88
2022-11-21T11:16:10.009Z,41.15
2022-11-21T11:18:48.651Z,41.92
2022-11-21T11:21:21.922Z,41.63
2022-11-21T11:23:54.029Z,39.13
2022-11-21T11:26:28.085Z,38.95
2022-11-21T11:29:18.065Z,37.40
2022-11-21T11:31:50.604Z,38.22
2022-11-21T11:34:18.451Z,36.13
2022-11-21T11:37:11.932Z,37.20
2022-11-21T11:39:42.204Z,37.38
2022-11-21T11:42:47.146Z,35.22
2022-11-21T11:45:32.959Z,35.75
2022-11-21T11:48:12.759Z,39.38
2022-11-21T11:50:49.422Z,36.08
2022-11-21T11:53:30.731Z,35.03
2022-11-21T11:56:16.461Z,33.88
2022-11-21T11:58:43.633Z,35.17
2022-11-21T12:01:13.422Z,36.58
2022-11-21T12:04:10.621Z,35.75
2022-11-21T12:10:06.765Z,37.95
2022-11-21T12:12:45.861Z,37.45
2022-11-21T12:15:38.560Z,35.00
2022-11-21T12:18:55.005Z,37.70
2022-11-21T12:21:23.817Z,35.72
2022-11-21T12:23:59.129Z,38.30
2022-11-21T12:26:56.808Z,37.58
2022-11-21T12:29:26.869Z,36.65
2022-11-21T12:32:08.931Z,36.53
2022-11-21T12:35:12.771Z,36.00
2022-11-21T12:38:15.163Z,36.50
2022-11-21T12:41:00.177Z,36.38
2022-11-21T12:44:11.748Z,34.35
2022-11-21T12:46:53.725Z,35.38
2022-11-21T12:50:02.988Z,35.22
2022-11-21T12:53:00.320Z,36.93
2022-11-21T12:55:35.041Z,36.10
2022-11-21T12:58:17.917Z,38.22
2022-11-21T13:01:06.903Z,37.10
2022-11-21T13:03:57.099Z,38.70
2022-11-21T13:08:55.449Z,35.97
2022-11-21T13:12:00.318Z,37.47
2022-11-21T13:14:40.403Z,37.38
2022-11-21T13:19:59.013Z,35.97
2022-11-21T13:22:56.551Z,36.63
2022-11-21T13:25:33.069Z,38.08
2022-11-21T13:28:18.958Z,36.78
2022-11-21T13:30:54.294Z,36.53
2022-11-21T13:33:36.424Z,38.78
2022-11-21T13:36:08.094Z,36.80
2022-11-21T13:38:56.375Z,36.65
2022-11-21T13:41:54.341Z,36.78
2022-11-21T13:44:33.595Z,35.63
2022-11-21T13:47:10.009Z,37.20
2022-11-21T13:50:04.676Z,36.92
2022-11-21T13:52:49.699Z,35.42
2022-11-21T13:55:36.013Z,37.70
2022-11-21T13:58:24.605Z,37.65
2022-11-21T14:01:13.234Z,40.55
2022-11-21T14:03:59.050Z,41.10
2022-11-21T14:06:38.053Z,40.50
2022-11-21T14:09:14.163Z,38.17
2022-11-21T14:11:48.376Z,38.80
2022-11-21T14:14:33.778Z,39.55
2022-11-21T14:17:39.883Z,38.60
2022-11-21T14:20:23.763Z,37.95
2022-11-21T14:23:20.575Z,40.28
2022-11-21T14:25:57.818Z,38.20
2022-11-21T14:28:27.173Z,39.30
2022-11-21T14:31:00.049Z,40.60
2022-11-21T14:33:47.778Z,38.40
2022-11-21T14:36:30.134Z,38.13
2022-11-21T14:39:36.607Z,39.95
2022-11-21T14:41:57.135Z,41.35
2022-11-21T14:44:24.896Z,42.30
2022-11-21T14:47:06.511Z,41.50
2022-11-21T14:49:33.699Z,43.22
2022-11-21T14:52:18.029Z,41.42
2022-11-21T14:55:28.530Z,43.08
2022-11-21T14:57:45.141Z,41.63
2022-11-21T15:00:43.290Z,42.95
2022-11-21T15:03:04.395Z,42.85
2022-11-21T15:06:00.896Z,44.97
2022-11-21T15:11:14.244Z,43.72
2022-11-21T15:14:12.127Z,46.40
2022-11-21T15:16:31.385Z,39.88
2022-11-21T15:18:58.686Z,44.17
2022-11-21T15:21:25.929Z,44.10
2022-11-21T15:23:55.797Z,42.35
2022-11-21T15:26:31.460Z,44.55
2022-11-21T15:29:00.220Z,44.55
2022-11-21T15:31:28.270Z,42.08
2022-11-21T15:34:34.745Z,41.08
2022-11-21T15:37:24.220Z,41.78
2022-11-21T15:39:53.571Z,41.53
2022-11-21T15:42:32.704Z,40.33
2022-11-21T15:45:02.592Z,39.40
2022-11-21T15:47:29.909Z,41.13
2022-11-21T15:49:57.176Z,40.65
2022-11-21T15:52:24.409Z,41.72
2022-11-21T15:54:51.653Z,42.00
2022-11-21T15:59:47.013Z,39.83
2022-11-21T16:02:14.793Z,41.72
2022-11-21T16:04:42.812Z,42.13
2022-11-21T16:07:10.013Z,42.92
2022-11-21T16:09:38.048Z,44.28
2022-11-21T16:12:05.420Z,43.00
2022-11-21T16:14:32.574Z,44.78
2022-11-21T16:16:59.699Z,41.75
2022-11-21T16:19:27.140Z,43.65
2022-11-21T16:21:54.508Z,43.63
2022-11-21T16:24:21.763Z,44.58
2022-11-21T16:26:53.569Z,43.30
2022-11-21T16:29:20.957Z,44.92
2022-11-21T16:31:50.526Z,43.03
2022-11-21T16:34:20.846Z,46.47
2022-11-21T16:36:48.000Z,46.92
2022-11-21T16:39:18.252Z,47.85
2022-11-21T16:41:46.940Z,47.30
2022-11-21T16:44:15.928Z,48.38
2022-11-21T16:46:48.340Z,47.70
2022-11-21T16:49:15.559Z,48.55
2022-11-21T16:51:42.686Z,49.80
2022-11-21T16:54:09.920Z,47.60
2022-11-21T16:56:37.294Z,50.00
2022-11-21T16:59:04.642Z,52.03
2022-11-21T17:01:32.025Z,48.83
2022-11-21T17:03:59.501Z,51.83
2022-11-21T17:06:30.207Z,51.63
2022-11-21T17:09:00.261Z,52.22
2022-11-21T17:11:29.575Z,51.30
2022-11-21T17:14:01.322Z,50.08
2022-11-21T17:16:29.050Z,50.97
2022-11-21T17:18:58.298Z,51.90
2022-11-21T17:21:26.930Z,52.70
2022-11-21T17:23:54.675Z,51.38
2022-11-21T17:26:24.691Z,57.00
2022-11-21T17:28:57.459Z,55.67
2022-11-21T17:31:25.562Z,56.63
2022-11-21T17:33:55.003Z,54.63
2022-11-21T17:36:24.825Z,56.92
2022-11-21T17:38:53.132Z,56.47
2022-11-21T17:41:22.512Z,53.40
2022-11-21T17:43:53.443Z,63.72
2022-11-21T17:46:20.880Z,73.13
2022-11-21T17:48:55.023Z,68.28
2022-11-21T17:51:34.714Z,63.78
2022-11-21T17:54:02.809Z,59.15
2022-11-21T17:56:32.883Z,57.35
2022-11-21T18:01:27.482Z,64.93
2022-11-21T18:04:03.389Z,61.10
2022-11-21T18:06:36.259Z,63.20
2022-11-21T18:09:05.581Z,64.53
2022-11-21T18:11:39.569Z,60.60
2022-11-21T18:14:09.245Z,57.67
2022-11-21T18:16:36.496Z,59.13
2022-11-21T18:19:03.813Z,59.67
2022-11-21T18:21:33.240Z,55.47
2022-11-21T18:24:00.600Z,56.65
2022-11-21T18:26:30.337Z,56.97
2022-11-21T18:31:47.900Z,52.75
2022-11-21T18:34:15.053Z,56.88
2022-11-21T18:36:42.557Z,66.18
2022-11-21T18:39:14.772Z,57.50
2022-11-21T18:41:43.499Z,56.25
2022-11-21T18:44:14.592Z,60.72
2022-11-21T18:46:44.533Z,57.38
2022-11-21T18:49:11.716Z,59.55
2022-11-21T18:51:38.839Z,57.15
2022-11-21T18:54:08.820Z,58.03
2022-11-21T18:56:37.846Z,56.40
2022-11-21T18:59:06.760Z,51.40
2022-11-21T19:01:35.681Z,48.72
2022-11-21T19:04:03.661Z,49.92
2022-11-21T19:06:31.052Z,49.45
2022-11-21T19:08:59.147Z,43.97
2022-11-21T19:11:29.243Z,47.95
2022-11-21T19:16:26.519Z,43.25
2022-11-21T19:19:26.395Z,43.60
2022-11-21T19:21:42.505Z,47.17
2022-11-21T19:24:14.633Z,47.35
2022-11-21T19:26:42.487Z,48.15
2022-11-21T19:29:10.407Z,42.63
2022-11-21T19:31:44.251Z,44.17
2022-11-21T19:34:14.248Z,43.10
2022-11-21T19:36:41.620Z,43.13
2022-11-21T19:39:09.281Z,41.85
2022-11-21T19:41:36.900Z,42.30
2022-11-21T19:44:04.571Z,42.83
2022-11-21T19:46:34.868Z,37.72
2022-11-21T19:49:02.729Z,38.05
2022-11-21T19:51:41.418Z,39.38
2022-11-21T19:54:11.285Z,41.83
2022-11-21T19:56:38.552Z,40.65
2022-11-21T19:59:05.936Z,39.65
2022-11-21T20:01:34.929Z,37.40
2022-11-21T20:04:04.877Z,40.00
2022-11-21T20:06:41.782Z,38.58
2022-11-21T20:09:11.724Z,38.30
2022-11-21T20:11:41.046Z,35.95
2022-11-21T20:14:08.669Z,36.25
2022-11-21T20:16:38.742Z,37.22
2022-11-21T20:21:34.790Z,35.58
2022-11-21T20:24:02.486Z,34.63
2022-11-21T20:26:30.201Z,35.45
2022-11-21T20:28:57.560Z,34.30
2022-11-21T20:31:28.081Z,34.50
2022-11-21T20:34:00.984Z,34.83
2022-11-21T20:36:30.420Z,34.80
2022-11-21T20:39:01.651Z,35.45
2022-11-21T20:41:31.643Z,35.30
2022-11-21T20:46:52.449Z,36.05
2022-11-21T20:49:19.625Z,35.63
2022-11-21T20:53:36.615Z,35.97
2022-11-21T20:54:35.246Z,37.95
2022-11-21T20:57:02.650Z,41.78
2022-11-21T20:59:30.139Z,41.88
2022-11-21T21:01:57.670Z,42.60
2022-11-21T21:04:24.924Z,45.40
2022-11-21T21:06:52.218Z,45.20
2022-11-21T21:09:19.524Z,43.20
2022-11-21T21:11:54.220Z,48.63
2022-11-21T21:14:22.509Z,50.28
2022-11-21T21:16:50.517Z,50.80
2022-11-21T21:19:18.730Z,47.53
2022-11-21T21:21:46.336Z,45.65
2022-11-21T21:24:14.533Z,56.20
2022-11-21T21:26:45.461Z,47.10
2022-11-21T21:29:16.018Z,47.17
2022-11-21T21:31:49.883Z,43.42
2022-11-21T21:34:18.411Z,42.58
2022-11-21T21:36:45.650Z,41.75
2022-11-21T21:39:13.124Z,41.88
2022-11-21T21:41:44.741Z,40.67
2022-11-21T21:44:12.797Z,43.35
2022-11-21T21:46:39.892Z,43.47
2022-11-21T21:49:07.050Z,43.05
2022-11-21T21:51:36.180Z,43.72
2022-11-21T21:54:03.601Z,42.80
2022-11-21T21:56:30.782Z,44.53
2022-11-21T21:58:58.653Z,44.97
2022-11-21T22:01:31.399Z,41.25
2022-11-21T22:04:01.397Z,41.17
2022-11-21T22:06:29.561Z,42.03
2022-11-21T22:08:56.979Z,43.83
2022-11-21T22:11:29.594Z,43.50
2022-11-21T22:14:05.801Z,41.20
2022-11-21T22:16:33.457Z,40.85
2022-11-21T22:19:00.631Z,38.72
2022-11-21T22:21:32.617Z,42.38
2022-11-21T22:26:52.410Z,39.95
2022-11-21T22:29:19.657Z,42.97
2022-11-21T22:31:46.929Z,41.35
2022-11-21T22:34:14.652Z,39.85
2022-11-21T22:36:42.322Z,44.72
2022-11-21T22:39:09.828Z,43.00
2022-11-21T22:41:37.031Z,45.38
2022-11-21T22:44:04.592Z,39.88
2022-11-21T22:46:31.872Z,36.45
2022-11-21T22:48:59.325Z,34.33
2022-11-21T22:51:29.923Z,32.28
2022-11-21T22:53:58.283Z,28.77
2022-11-21T22:56:27.289Z,25.95
2022-11-21T22:58:54.686Z,26.20
2022-11-21T23:01:24.724Z,26.20
2022-11-21T23:06:21.982Z,27.35
2022-11-21T23:08:49.162Z,29.27
2022-11-21T23:11:19.547Z,26.80
2022-11-21T23:13:47.994Z,28.42
2022-11-21T23:16:16.303Z,28.63
2022-11-21T23:18:44.240Z,29.65
2022-11-21T23:21:12.651Z,29.08
2022-11-21T23:23:40.209Z,27.25
2022-11-21T23:26:07.722Z,30.77
2022-11-21T23:28:35.041Z,31.08
2022-11-21T23:31:02.401Z,31.50
2022-11-21T23:33:29.573Z,31.08
2022-11-21T23:35:56.769Z,31.02
2022-11-21T23:38:23.953Z,31.42
2022-11-21T23:40:51.321Z,31.90
2022-11-21T23:43:19.202Z,32.63
2022-11-21T23:45:50.840Z,31.85
2022-11-21T23:48:18.281Z,30.58
2022-11-21T23:50:47.341Z,28.42
2022-11-21T23:53:14.581Z,27.73
2022-11-21T23:55:43.369Z,29.08
2022-11-21T23:58:11.194Z,30.38
